EW1956 Weather Reports


Display with metric or nautical units.
time (UTC)temp
F
wind
direction
speed
MPH
gust
MPH
rain 1hr
in
rain 24hr
in
rain mn
in
humidity
%
barometer
mb
20191210163101 53 9 1.0 4.0 0.01 0.06 0.01 82 1021.8
20191210161504 52 6 1.0 3.0 0.01 0.06 0.01 84 1021.8
20191210160422 52 302 2.0 3.0 0.01 0.06 0.01 84 1021.5
20191210154710 51 333 2.0 4.0 0.00 0.05 0.00 86 1021.5
20191210153228 51 323 1.0 2.0 0.00 0.05 0.00 89 1021.4
20191210151640 49 300 0.0 2.0 0.00 0.05 0.00 93 1021.2
20191210150124 48 290 1.0 3.0 0.00 0.05 0.00 93 1021.2
20191210144708 0 0.0 0.0 0.00 0.05 0.00 1021.0
20191210143151 0 0.0 0.0 0.00 0.05 0.00 1020.8
20191210141648 0 0.0 0.0 0.00 0.05 0.00 1020.5
20191210140051 0 0.0 0.0 0.00 0.05 0.00 1020.4
20191210134614 0 0.0 0.0 0.00 0.05 0.00 1020.1
20191210133228 0 0.0 0.0 0.00 0.05 0.00 1019.8
20191210131542 0 0.0 0.0 0.00 0.05 0.00 1019.5
20191210130032 0 0.0 0.0 0.00 0.05 0.00 1019.5
20191210124517 0 0.0 0.0 0.00 0.05 0.00 1019.3
20191210123036 0 0.0 0.0 0.00 0.05 0.00 1019.0
20191210121725 0 0.0 0.0 0.00 0.05 0.00 1018.8
20191210120310 0 0.0 0.0 0.00 0.05 0.00 1018.8
20191210114800 0 0.0 0.0 0.00 0.05 0.00 1018.6
20191210113204 0 0.0 0.0 0.00 0.05 0.00 1018.6
20191210111627 0 0.0 0.0 0.00 0.05 0.00 1018.6
20191210110108 0 0.0 0.0 0.00 0.05 0.00 1018.7
20191210104734 0 0.0 0.0 0.00 0.05 0.00 1018.7
20191210103143 0 0.0 0.0 0.00 0.05 0.00 1018.6
20191210101555 0 0.0 0.0 0.00 0.05 0.00 1018.5
20191210100034 0 0.0 0.0 0.00 0.05 0.00 1018.2
20191210094543 0 0.0 0.0 0.00 0.05 0.00 1018.3
20191210093019 0 0.0 0.0 0.00 0.05 0.00 1018.0
20191210091544 0 0.0 0.0 0.00 0.05 0.00 1017.8
20191210090005 0 0.0 0.0 0.00 0.05 0.00 1017.8
20191210084709 0 0.0 0.0 0.00 0.05 0.00 1017.5
20191210083154 0 0.0 0.0 0.00 0.05 0.00 1017.4
20191210081645 0 0.0 0.0 0.00 0.05 0.00 1017.4
20191210080135 0 0.0 0.0 0.00 0.05 0.00 1017.2
20191210074642 47 153 0.0 0.0 0.00 0.05 0.05 95 1017.1
20191210073112 47 155 0.0 0.0 0.00 0.05 0.05 95 1017.0
20191210071648 47 155 0.0 0.0 0.00 0.05 0.05 95 1016.8
20191210070128 48 155 0.0 0.0 0.00 0.05 0.05 94 1016.6
20191210064621 49 155 0.0 1.0 0.00 0.05 0.05 95 1016.6
20191210063126 49 155 0.0 0.0 0.00 0.05 0.05 94 1016.4
20191210061612 50 155 0.0 1.0 0.00 0.05 0.05 94 1016.2
20191210060059 50 106 0.0 2.0 0.00 0.05 0.05 93 1016.3
20191210054547 50 124 1.0 5.0 0.00 0.05 0.05 94 1016.0
20191210053042 50 105 3.0 5.0 0.00 0.05 0.05 93 1015.7
20191210051600 50 124 0.0 3.0 0.00 0.05 0.05 92 1015.4
20191210050122 51 175 2.0 7.0 0.00 0.05 0.05 92 1015.3
20191210044551 51 169 1.0 5.0 0.00 0.05 0.05 93 1015.1
20191210043026 50 109 3.0 5.0 0.00 0.05 0.05 93 1015.0
20191210041529 50 94 0.0 2.0 0.00 0.05 0.05 91 1014.9
20191210040106 51 116 0.0 5.0 0.00 0.05 0.05 90 1014.7
20191210034526 51 154 2.0 6.0 0.00 0.05 0.05 89 1014.5
20191210033015 52 159 3.0 6.0 0.00 0.05 0.05 89 1014.4
20191210031526 52 174 2.0 4.0 0.00 0.05 0.05 89 1014.2
20191210030010 52 162 1.0 3.0 0.00 0.05 0.05 88 1014.1
20191210024506 51 138 0.0 3.0 0.00 0.05 0.05 90 1014.1
20191210023006 51 176 0.0 2.0 0.00 0.05 0.05 92 1014.0
20191210021512 51 93 0.0 1.0 0.00 0.05 0.05 91 1013.5
20191210020246 52 93 0.0 0.0 0.00 0.05 0.05 90 1013.2
20191210014652 52 105 1.0 4.0 0.00 0.05 0.05 90 1013.1
20191210013135 52 89 0.0 2.0 0.00 0.05 0.05 89 1012.7
20191210011625 53 91 0.0 1.0 0.00 0.05 0.05 85 1012.6
20191210010103 53 100 0.0 1.0 0.00 0.05 0.05 84 1012.4
20191210004635 53 103 1.0 3.0 0.00 0.05 0.05 84 1012.3
20191210003200 53 124 1.0 3.0 0.00 0.05 0.05 84 1011.9
20191210001634 53 15 0.0 0.0 0.00 0.05 0.05 82 1011.5
20191210000222 54 15 0.0 1.0 0.00 0.05 0.05 80 1011.3
20191209234606 55 15 0.0 0.0 0.00 0.05 0.05 78 1011.1
20191209233146 56 15 0.0 0.0 0.00 0.05 0.05 76 1010.9
20191209231623 57 107 0.0 0.0 0.00 0.05 0.05 73 1010.7
20191209230102 57 346 0.0 3.0 0.00 0.05 0.05 73 1010.5
20191209224623 57 289 0.0 4.0 0.00 0.05 0.05 74 1010.5
20191209223139 57 226 0.0 4.0 0.00 0.05 0.05 73 1010.4
20191209221634 56 233 0.0 4.0 0.00 0.05 0.05 75 1010.2
20191209220056 56 295 1.0 5.0 0.00 0.05 0.05 77 1010.2
20191209214650 56 14 1.0 4.0 0.00 0.05 0.05 78 1010.3
20191209213124 55 326 0.0 3.0 0.01 0.05 0.05 82 1010.3
20191209211603 55 325 1.0 4.0 0.01 0.05 0.05 80 1010.2
20191209210130 55 321 0.0 6.0 0.01 0.05 0.05 83 1010.0
20191209204617 54 295 4.0 6.0 0.01 0.05 0.05 86 1009.9
20191209203109 53 338 2.0 5.0 0.00 0.04 0.04 91 1009.9
20191209201613 52 316 3.0 6.0 0.02 0.04 0.04 91 1010.0
20191209193140 51 256 3.0 11.0 0.03 0.03 0.03 92 1010.2
20191209191558 50 117 1.0 12.0 0.02 0.02 0.02 92 1010.8
20191209190120 51 77 3.0 8.0 0.02 0.02 0.02 90 1011.7
20191209184556 51 158 5.0 15.0 0.02 0.02 0.02 89 1010.9
20191209183037 52 198 5.0 17.0 0.00 0.00 0.00 87 1010.7
20191209181622 55 184 5.0 17.0 0.00 0.00 0.00 82 1010.8
20191209180046 58 146 3.0 5.0 0.00 0.00 0.00 80 1010.7
20191209174554 57 226 1.0 3.0 0.00 0.00 0.00 81 1010.2
20191209173101 57 314 0.0 0.0 0.00 0.00 0.00 83 1010.2
20191209171532 56 323 0.0 2.0 0.00 0.00 0.00 83 1010.2
20191209170032 56 334 0.0 5.0 0.00 0.00 0.00 84 1010.2
20191209164639 55 41 0.0 6.0 0.00 0.00 0.00 87 1010.3